sensor_id;sensor_type;location;lat;lon;timestamp;P1;durP1;ratioP1;P2;durP2;ratioP2
19113;SDS011;9689;51.052;13.772;2023-07-20T00:04:11;6.05;;;3.05;;
19113;SDS011;9689;51.052;13.772;2023-07-20T00:09:12;9.45;;;3.38;;
19113;SDS011;9689;51.052;13.772;2023-07-20T00:14:13;4.88;;;2.90;;
19113;SDS011;9689;51.052;13.772;2023-07-20T00:19:15;8.52;;;3.22;;
19113;SDS011;9689;51.052;13.772;2023-07-20T00:24:16;4.65;;;3.15;;
19113;SDS011;9689;51.052;13.772;2023-07-20T00:29:17;5.00;;;2.92;;
19113;SDS011;9689;51.052;13.772;2023-07-20T00:34:20;5.60;;;2.72;;
19113;SDS011;9689;51.052;13.772;2023-07-20T00:39:21;5.80;;;3.28;;
19113;SDS011;9689;51.052;13.772;2023-07-20T00:44:24;5.15;;;2.53;;
19113;SDS011;9689;51.052;13.772;2023-07-20T00:49:26;5.35;;;2.53;;
19113;SDS011;9689;51.052;13.772;2023-07-20T00:54:27;4.68;;;2.60;;
19113;SDS011;9689;51.052;13.772;2023-07-20T00:59:28;5.60;;;2.38;;
19113;SDS011;9689;51.052;13.772;2023-07-20T01:04:31;5.05;;;2.13;;
19113;SDS011;9689;51.052;13.772;2023-07-20T01:09:34;5.05;;;2.15;;
19113;SDS011;9689;51.052;13.772;2023-07-20T01:14:40;4.93;;;1.75;;
19113;SDS011;9689;51.052;13.772;2023-07-20T01:19:42;3.47;;;1.70;;
19113;SDS011;9689;51.052;13.772;2023-07-20T01:24:51;7.22;;;1.70;;
19113;SDS011;9689;51.052;13.772;2023-07-20T01:30:05;5.45;;;1.42;;
19113;SDS011;9689;51.052;13.772;2023-07-20T01:35:17;2.45;;;1.13;;
19113;SDS011;9689;51.052;13.772;2023-07-20T01:40:21;6.03;;;1.60;;
19113;SDS011;9689;51.052;13.772;2023-07-20T01:45:24;2.00;;;1.50;;
19113;SDS011;9689;51.052;13.772;2023-07-20T01:50:27;6.28;;;1.50;;
19113;SDS011;9689;51.052;13.772;2023-07-20T01:55:28;3.53;;;2.20;;
19113;SDS011;9689;51.052;13.772;2023-07-20T02:00:29;6.57;;;1.83;;
19113;SDS011;9689;51.052;13.772;2023-07-20T02:05:31;3.00;;;1.95;;
19113;SDS011;9689;51.052;13.772;2023-07-20T02:10:32;10.68;;;2.60;;
19113;SDS011;9689;51.052;13.772;2023-07-20T02:15:32;6.55;;;2.58;;
19113;SDS011;9689;51.052;13.772;2023-07-20T02:20:34;10.50;;;2.42;;
19113;SDS011;9689;51.052;13.772;2023-07-20T02:25:35;10.15;;;3.17;;
19113;SDS011;9689;51.052;13.772;2023-07-20T02:30:37;5.95;;;3.42;;
19113;SDS011;9689;51.052;13.772;2023-07-20T02:35:41;4.55;;;2.80;;
19113;SDS011;9689;51.052;13.772;2023-07-20T02:40:42;7.38;;;3.17;;
19113;SDS011;9689;51.052;13.772;2023-07-20T02:45:42;7.85;;;2.80;;
19113;SDS011;9689;51.052;13.772;2023-07-20T02:50:45;10.73;;;3.58;;
19113;SDS011;9689;51.052;13.772;2023-07-20T02:55:45;13.05;;;3.22;;
19113;SDS011;9689;51.052;13.772;2023-07-20T03:00:47;11.27;;;4.45;;
19113;SDS011;9689;51.052;13.772;2023-07-20T03:05:49;7.68;;;3.90;;
19113;SDS011;9689;51.052;13.772;2023-07-20T03:10:54;12.50;;;4.25;;
19113;SDS011;9689;51.052;13.772;2023-07-20T03:15:56;10.75;;;3.95;;
19113;SDS011;9689;51.052;13.772;2023-07-20T03:20:58;14.30;;;5.18;;
19113;SDS011;9689;51.052;13.772;2023-07-20T03:26:00;10.55;;;4.25;;
19113;SDS011;9689;51.052;13.772;2023-07-20T03:31:03;16.65;;;4.78;;
19113;SDS011;9689;51.052;13.772;2023-07-20T03:36:09;12.68;;;4.40;;
19113;SDS011;9689;51.052;13.772;2023-07-20T03:41:10;11.68;;;4.00;;
19113;SDS011;9689;51.052;13.772;2023-07-20T03:46:12;10.23;;;4.45;;
19113;SDS011;9689;51.052;13.772;2023-07-20T03:51:14;12.05;;;4.70;;
19113;SDS011;9689;51.052;13.772;2023-07-20T03:56:15;12.40;;;4.78;;
19113;SDS011;9689;51.052;13.772;2023-07-20T04:01:16;13.35;;;4.00;;
19113;SDS011;9689;51.052;13.772;2023-07-20T04:06:18;11.27;;;4.25;;
19113;SDS011;9689;51.052;13.772;2023-07-20T04:11:20;14.93;;;3.90;;
19113;SDS011;9689;51.052;13.772;2023-07-20T04:16:21;17.05;;;4.55;;
19113;SDS011;9689;51.052;13.772;2023-07-20T04:21:25;6.32;;;3.70;;
19113;SDS011;9689;51.052;13.772;2023-07-20T04:26:27;14.18;;;3.92;;
19113;SDS011;9689;51.052;13.772;2023-07-20T04:31:28;13.27;;;3.38;;
19113;SDS011;9689;51.052;13.772;2023-07-20T04:36:33;8.73;;;3.42;;
19113;SDS011;9689;51.052;13.772;2023-07-20T04:41:33;9.40;;;4.43;;
19113;SDS011;9689;51.052;13.772;2023-07-20T04:46:34;7.45;;;4.55;;
19113;SDS011;9689;51.052;13.772;2023-07-20T04:51:37;11.57;;;4.38;;
19113;SDS011;9689;51.052;13.772;2023-07-20T04:56:38;17.30;;;5.82;;
19113;SDS011;9689;51.052;13.772;2023-07-20T05:01:42;10.43;;;5.30;;
19113;SDS011;9689;51.052;13.772;2023-07-20T05:06:44;12.68;;;6.60;;
19113;SDS011;9689;51.052;13.772;2023-07-20T05:11:45;21.52;;;6.63;;
19113;SDS011;9689;51.052;13.772;2023-07-20T05:16:47;13.32;;;6.15;;
19113;SDS011;9689;51.052;13.772;2023-07-20T05:21:50;16.65;;;5.88;;
19113;SDS011;9689;51.052;13.772;2023-07-20T05:26:50;13.15;;;4.95;;
19113;SDS011;9689;51.052;13.772;2023-07-20T05:31:51;16.55;;;5.13;;
19113;SDS011;9689;51.052;13.772;2023-07-20T05:36:54;13.65;;;5.18;;
19113;SDS011;9689;51.052;13.772;2023-07-20T05:41:55;17.23;;;4.97;;
19113;SDS011;9689;51.052;13.772;2023-07-20T05:46:56;12.75;;;4.43;;
19113;SDS011;9689;51.052;13.772;2023-07-20T05:51:58;10.73;;;4.70;;
19113;SDS011;9689;51.052;13.772;2023-07-20T05:57:00;14.13;;;4.70;;
19113;SDS011;9689;51.052;13.772;2023-07-20T06:02:01;12.60;;;3.97;;
19113;SDS011;9689;51.052;13.772;2023-07-20T06:07:03;14.02;;;4.22;;
19113;SDS011;9689;51.052;13.772;2023-07-20T06:12:04;11.35;;;4.35;;
19113;SDS011;9689;51.052;13.772;2023-07-20T06:17:06;6.65;;;4.68;;
19113;SDS011;9689;51.052;13.772;2023-07-20T06:22:08;9.55;;;4.38;;
19113;SDS011;9689;51.052;13.772;2023-07-20T06:27:09;9.45;;;3.70;;
19113;SDS011;9689;51.052;13.772;2023-07-20T06:32:11;9.15;;;5.10;;
19113;SDS011;9689;51.052;13.772;2023-07-20T06:37:14;7.80;;;3.70;;
19113;SDS011;9689;51.052;13.772;2023-07-20T06:42:15;7.35;;;3.88;;
19113;SDS011;9689;51.052;13.772;2023-07-20T06:47:16;6.47;;;3.45;;
19113;SDS011;9689;51.052;13.772;2023-07-20T06:52:36;16.83;;;3.65;;
19113;SDS011;9689;51.052;13.772;2023-07-20T06:57:38;8.27;;;3.65;;
19113;SDS011;9689;51.052;13.772;2023-07-20T07:02:44;9.30;;;3.25;;
19113;SDS011;9689;51.052;13.772;2023-07-20T07:07:50;4.80;;;2.58;;
19113;SDS011;9689;51.052;13.772;2023-07-20T07:12:51;5.43;;;3.15;;
19113;SDS011;9689;51.052;13.772;2023-07-20T07:17:52;7.80;;;3.15;;
19113;SDS011;9689;51.052;13.772;2023-07-20T07:22:54;16.17;;;3.58;;
19113;SDS011;9689;51.052;13.772;2023-07-20T07:27:56;3.90;;;2.58;;
19113;SDS011;9689;51.052;13.772;2023-07-20T07:32:57;5.28;;;2.67;;
19113;SDS011;9689;51.052;13.772;2023-07-20T07:37:59;3.40;;;2.58;;
19113;SDS011;9689;51.052;13.772;2023-07-20T07:43:12;3.00;;;2.40;;
19113;SDS011;9689;51.052;13.772;2023-07-20T07:48:13;3.92;;;2.20;;
19113;SDS011;9689;51.052;13.772;2023-07-20T07:53:15;6.18;;;1.95;;
19113;SDS011;9689;51.052;13.772;2023-07-20T07:58:16;2.38;;;2.17;;
19113;SDS011;9689;51.052;13.772;2023-07-20T08:03:17;4.95;;;2.30;;
19113;SDS011;9689;51.052;13.772;2023-07-20T08:08:20;10.05;;;4.00;;
19113;SDS011;9689;51.052;13.772;2023-07-20T08:13:23;4.07;;;2.97;;
19113;SDS011;9689;51.052;13.772;2023-07-20T08:18:24;6.00;;;3.40;;
19113;SDS011;9689;51.052;13.772;2023-07-20T08:23:26;5.10;;;3.10;;
19113;SDS011;9689;51.052;13.772;2023-07-20T08:28:27;6.47;;;4.47;;
19113;SDS011;9689;51.052;13.772;2023-07-20T08:33:28;8.48;;;3.88;;
19113;SDS011;9689;51.052;13.772;2023-07-20T08:38:34;5.50;;;4.13;;
19113;SDS011;9689;51.052;13.772;2023-07-20T08:43:35;12.00;;;4.45;;
19113;SDS011;9689;51.052;13.772;2023-07-20T08:48:39;8.23;;;4.30;;
19113;SDS011;9689;51.052;13.772;2023-07-20T08:53:43;5.45;;;3.97;;
19113;SDS011;9689;51.052;13.772;2023-07-20T08:58:45;7.00;;;4.75;;
19113;SDS011;9689;51.052;13.772;2023-07-20T09:03:47;7.85;;;3.80;;
19113;SDS011;9689;51.052;13.772;2023-07-20T09:08:50;5.53;;;3.30;;
19113;SDS011;9689;51.052;13.772;2023-07-20T09:14:01;3.38;;;2.88;;
19113;SDS011;9689;51.052;13.772;2023-07-20T09:19:03;6.18;;;3.20;;
19113;SDS011;9689;51.052;13.772;2023-07-20T09:24:06;6.18;;;2.90;;
19113;SDS011;9689;51.052;13.772;2023-07-20T09:29:07;8.05;;;2.75;;
19113;SDS011;9689;51.052;13.772;2023-07-20T09:34:08;4.93;;;3.53;;
19113;SDS011;9689;51.052;13.772;2023-07-20T09:39:11;5.63;;;2.85;;
19113;SDS011;9689;51.052;13.772;2023-07-20T09:44:13;8.55;;;2.92;;
19113;SDS011;9689;51.052;13.772;2023-07-20T09:49:20;6.60;;;3.15;;
19113;SDS011;9689;51.052;13.772;2023-07-20T09:54:25;4.00;;;2.67;;
19113;SDS011;9689;51.052;13.772;2023-07-20T09:59:27;6.65;;;2.78;;
19113;SDS011;9689;51.052;13.772;2023-07-20T10:04:28;3.85;;;3.10;;
19113;SDS011;9689;51.052;13.772;2023-07-20T10:09:32;7.07;;;4.72;;
19113;SDS011;9689;51.052;13.772;2023-07-20T10:14:35;8.18;;;4.57;;
19113;SDS011;9689;51.052;13.772;2023-07-20T10:19:42;10.05;;;7.90;;
19113;SDS011;9689;51.052;13.772;2023-07-20T10:24:51;11.48;;;7.22;;
19113;SDS011;9689;51.052;13.772;2023-07-20T10:29:55;7.25;;;5.78;;
19113;SDS011;9689;51.052;13.772;2023-07-20T10:34:58;7.07;;;5.45;;
19113;SDS011;9689;51.052;13.772;2023-07-20T10:40:01;9.48;;;6.57;;
19113;SDS011;9689;51.052;13.772;2023-07-20T10:45:41;11.70;;;6.30;;
19113;SDS011;9689;51.052;13.772;2023-07-20T10:50:43;8.88;;;5.07;;
19113;SDS011;9689;51.052;13.772;2023-07-20T10:55:45;5.50;;;4.32;;
19113;SDS011;9689;51.052;13.772;2023-07-20T11:00:57;5.78;;;4.20;;
19113;SDS011;9689;51.052;13.772;2023-07-20T11:05:59;6.20;;;3.42;;
19113;SDS011;9689;51.052;13.772;2023-07-20T11:11:24;5.75;;;3.60;;
19113;SDS011;9689;51.052;13.772;2023-07-20T11:16:32;4.47;;;3.33;;
19113;SDS011;9689;51.052;13.772;2023-07-20T11:21:38;4.30;;;3.85;;
19113;SDS011;9689;51.052;13.772;2023-07-20T11:27:01;5.38;;;4.00;;
19113;SDS011;9689;51.052;13.772;2023-07-20T11:32:03;7.93;;;4.30;;
19113;SDS011;9689;51.052;13.772;2023-07-20T11:37:05;7.50;;;4.47;;
19113;SDS011;9689;51.052;13.772;2023-07-20T11:42:11;5.78;;;4.07;;
19113;SDS011;9689;51.052;13.772;2023-07-20T11:47:32;6.40;;;4.22;;
19113;SDS011;9689;51.052;13.772;2023-07-20T11:52:33;4.70;;;3.25;;
19113;SDS011;9689;51.052;13.772;2023-07-20T11:57:36;7.55;;;3.78;;
19113;SDS011;9689;51.052;13.772;2023-07-20T12:02:38;5.07;;;3.38;;
19113;SDS011;9689;51.052;13.772;2023-07-20T12:07:39;3.05;;;2.75;;
19113;SDS011;9689;51.052;13.772;2023-07-20T12:12:42;4.85;;;3.10;;
19113;SDS011;9689;51.052;13.772;2023-07-20T12:17:45;4.10;;;3.60;;
19113;SDS011;9689;51.052;13.772;2023-07-20T12:22:47;7.10;;;4.60;;
19113;SDS011;9689;51.052;13.772;2023-07-20T12:27:49;5.50;;;4.90;;
19113;SDS011;9689;51.052;13.772;2023-07-20T12:32:50;7.22;;;5.50;;
19113;SDS011;9689;51.052;13.772;2023-07-20T12:37:51;6.68;;;5.20;;
19113;SDS011;9689;51.052;13.772;2023-07-20T12:42:54;8.48;;;6.30;;
19113;SDS011;9689;51.052;13.772;2023-07-20T12:47:55;9.90;;;6.90;;
19113;SDS011;9689;51.052;13.772;2023-07-20T12:52:56;4.63;;;3.92;;
19113;SDS011;9689;51.052;13.772;2023-07-20T12:57:58;10.48;;;3.95;;
19113;SDS011;9689;51.052;13.772;2023-07-20T13:02:59;3.78;;;2.80;;
19113;SDS011;9689;51.052;13.772;2023-07-20T13:08:06;5.60;;;3.10;;
19113;SDS011;9689;51.052;13.772;2023-07-20T13:13:12;6.30;;;3.20;;
19113;SDS011;9689;51.052;13.772;2023-07-20T13:18:13;5.38;;;3.13;;
19113;SDS011;9689;51.052;13.772;2023-07-20T13:23:13;3.22;;;2.53;;
19113;SDS011;9689;51.052;13.772;2023-07-20T13:28:15;6.45;;;2.55;;
19113;SDS011;9689;51.052;13.772;2023-07-20T13:33:16;4.60;;;2.40;;
19113;SDS011;9689;51.052;13.772;2023-07-20T13:38:17;3.72;;;2.03;;
19113;SDS011;9689;51.052;13.772;2023-07-20T13:43:22;2.35;;;1.45;;
19113;SDS011;9689;51.052;13.772;2023-07-20T13:48:23;4.03;;;1.80;;
19113;SDS011;9689;51.052;13.772;2023-07-20T13:53:27;2.75;;;1.63;;
19113;SDS011;9689;51.052;13.772;2023-07-20T13:58:35;5.40;;;1.65;;
19113;SDS011;9689;51.052;13.772;2023-07-20T14:03:39;2.63;;;1.63;;
19113;SDS011;9689;51.052;13.772;2023-07-20T14:08:40;3.55;;;1.55;;
19113;SDS011;9689;51.052;13.772;2023-07-20T14:13:42;1.75;;;1.20;;
19113;SDS011;9689;51.052;13.772;2023-07-20T14:18:46;1.67;;;1.10;;
19113;SDS011;9689;51.052;13.772;2023-07-20T14:23:51;1.63;;;1.27;;
19113;SDS011;9689;51.052;13.772;2023-07-20T14:28:54;1.83;;;1.70;;
19113;SDS011;9689;51.052;13.772;2023-07-20T14:33:55;2.58;;;1.50;;
19113;SDS011;9689;51.052;13.772;2023-07-20T14:38:58;1.55;;;1.05;;
19113;SDS011;9689;51.052;13.772;2023-07-20T14:44:00;1.40;;;1.30;;
19113;SDS011;9689;51.052;13.772;2023-07-20T14:49:01;1.48;;;1.33;;
19113;SDS011;9689;51.052;13.772;2023-07-20T14:54:02;2.80;;;1.40;;
19113;SDS011;9689;51.052;13.772;2023-07-20T14:59:04;2.33;;;1.33;;
19113;SDS011;9689;51.052;13.772;2023-07-20T15:04:06;2.85;;;1.65;;
19113;SDS011;9689;51.052;13.772;2023-07-20T15:09:07;2.70;;;1.27;;
19113;SDS011;9689;51.052;13.772;2023-07-20T15:14:10;4.00;;;1.20;;
19113;SDS011;9689;51.052;13.772;2023-07-20T15:19:10;5.78;;;1.10;;
19113;SDS011;9689;51.052;13.772;2023-07-20T15:24:12;2.78;;;1.40;;
19113;SDS011;9689;51.052;13.772;2023-07-20T15:29:15;2.15;;;1.40;;
19113;SDS011;9689;51.052;13.772;2023-07-20T15:34:19;3.97;;;1.20;;
19113;SDS011;9689;51.052;13.772;2023-07-20T15:39:23;2.10;;;1.33;;
19113;SDS011;9689;51.052;13.772;2023-07-20T15:44:25;1.48;;;1.00;;
19113;SDS011;9689;51.052;13.772;2023-07-20T15:49:26;1.20;;;1.10;;
19113;SDS011;9689;51.052;13.772;2023-07-20T15:54:31;3.42;;;0.90;;
19113;SDS011;9689;51.052;13.772;2023-07-20T15:59:35;2.60;;;1.17;;
19113;SDS011;9689;51.052;13.772;2023-07-20T16:04:38;1.75;;;1.00;;
19113;SDS011;9689;51.052;13.772;2023-07-20T16:09:39;4.03;;;1.23;;
19113;SDS011;9689;51.052;13.772;2023-07-20T16:14:41;2.47;;;0.98;;
19113;SDS011;9689;51.052;13.772;2023-07-20T16:19:45;2.70;;;1.10;;
19113;SDS011;9689;51.052;13.772;2023-07-20T16:24:46;3.67;;;0.98;;
19113;SDS011;9689;51.052;13.772;2023-07-20T16:29:48;1.40;;;0.63;;
19113;SDS011;9689;51.052;13.772;2023-07-20T16:34:49;3.13;;;0.80;;
19113;SDS011;9689;51.052;13.772;2023-07-20T16:39:50;5.63;;;1.25;;
19113;SDS011;9689;51.052;13.772;2023-07-20T16:44:52;4.65;;;0.88;;
19113;SDS011;9689;51.052;13.772;2023-07-20T16:49:53;1.00;;;0.80;;
19113;SDS011;9689;51.052;13.772;2023-07-20T16:54:55;1.38;;;0.60;;
19113;SDS011;9689;51.052;13.772;2023-07-20T16:59:57;3.10;;;0.70;;
19113;SDS011;9689;51.052;13.772;2023-07-20T17:04:58;1.70;;;0.70;;
19113;SDS011;9689;51.052;13.772;2023-07-20T17:09:59;2.13;;;0.60;;
19113;SDS011;9689;51.052;13.772;2023-07-20T17:15:01;0.85;;;0.70;;
19113;SDS011;9689;51.052;13.772;2023-07-20T17:20:03;0.98;;;0.60;;
19113;SDS011;9689;51.052;13.772;2023-07-20T17:25:12;0.80;;;0.60;;
19113;SDS011;9689;51.052;13.772;2023-07-20T17:30:17;1.25;;;0.60;;
19113;SDS011;9689;51.052;13.772;2023-07-20T17:35:18;0.50;;;0.40;;
19113;SDS011;9689;51.052;13.772;2023-07-20T17:40:20;0.95;;;0.80;;
19113;SDS011;9689;51.052;13.772;2023-07-20T17:45:26;0.60;;;0.60;;
19113;SDS011;9689;51.052;13.772;2023-07-20T17:50:27;1.05;;;0.63;;
19113;SDS011;9689;51.052;13.772;2023-07-20T17:55:30;1.25;;;0.60;;
19113;SDS011;9689;51.052;13.772;2023-07-20T18:00:32;2.13;;;0.80;;
19113;SDS011;9689;51.052;13.772;2023-07-20T18:05:36;1.13;;;0.88;;
19113;SDS011;9689;51.052;13.772;2023-07-20T18:10:37;1.27;;;0.88;;
19113;SDS011;9689;51.052;13.772;2023-07-20T18:15:42;1.80;;;0.93;;
19113;SDS011;9689;51.052;13.772;2023-07-20T18:20:46;6.35;;;3.83;;
19113;SDS011;9689;51.052;13.772;2023-07-20T18:25:47;12.30;;;7.10;;
19113;SDS011;9689;51.052;13.772;2023-07-20T18:30:49;2.47;;;1.75;;
19113;SDS011;9689;51.052;13.772;2023-07-20T18:35:52;6.28;;;1.40;;
19113;SDS011;9689;51.052;13.772;2023-07-20T18:40:53;2.33;;;1.00;;
19113;SDS011;9689;51.052;13.772;2023-07-20T18:45:55;4.25;;;1.38;;
19113;SDS011;9689;51.052;13.772;2023-07-20T18:50:56;1.52;;;1.10;;
19113;SDS011;9689;51.052;13.772;2023-07-20T18:55:58;2.97;;;1.38;;
19113;SDS011;9689;51.052;13.772;2023-07-20T19:01:00;5.45;;;1.35;;
19113;SDS011;9689;51.052;13.772;2023-07-20T19:06:01;2.13;;;1.10;;
19113;SDS011;9689;51.052;13.772;2023-07-20T19:11:04;1.98;;;1.13;;
19113;SDS011;9689;51.052;13.772;2023-07-20T19:16:09;1.63;;;1.00;;
19113;SDS011;9689;51.052;13.772;2023-07-20T19:21:10;1.17;;;1.00;;
19113;SDS011;9689;51.052;13.772;2023-07-20T19:26:11;1.30;;;1.20;;
19113;SDS011;9689;51.052;13.772;2023-07-20T19:31:13;2.10;;;1.30;;
19113;SDS011;9689;51.052;13.772;2023-07-20T19:36:14;1.42;;;1.30;;
19113;SDS011;9689;51.052;13.772;2023-07-20T19:41:15;3.17;;;1.30;;
19113;SDS011;9689;51.052;13.772;2023-07-20T19:46:17;2.45;;;1.88;;
19113;SDS011;9689;51.052;13.772;2023-07-20T19:51:18;4.80;;;1.13;;
19113;SDS011;9689;51.052;13.772;2023-07-20T19:56:19;1.55;;;1.35;;
19113;SDS011;9689;51.052;13.772;2023-07-20T20:01:21;5.32;;;2.72;;
19113;SDS011;9689;51.052;13.772;2023-07-20T20:06:25;5.25;;;2.92;;
19113;SDS011;9689;51.052;13.772;2023-07-20T20:11:26;5.40;;;2.08;;
19113;SDS011;9689;51.052;13.772;2023-07-20T20:16:28;3.47;;;2.15;;
19113;SDS011;9689;51.052;13.772;2023-07-20T20:21:29;5.55;;;2.17;;
19113;SDS011;9689;51.052;13.772;2023-07-20T20:26:30;4.78;;;2.10;;
19113;SDS011;9689;51.052;13.772;2023-07-20T20:31:33;3.30;;;1.95;;
19113;SDS011;9689;51.052;13.772;2023-07-20T20:36:34;2.28;;;1.83;;
19113;SDS011;9689;51.052;13.772;2023-07-20T20:41:35;2.30;;;1.80;;
19113;SDS011;9689;51.052;13.772;2023-07-20T20:46:44;6.55;;;1.80;;
19113;SDS011;9689;51.052;13.772;2023-07-20T20:51:45;2.50;;;1.65;;
19113;SDS011;9689;51.052;13.772;2023-07-20T20:56:46;4.75;;;2.95;;
19113;SDS011;9689;51.052;13.772;2023-07-20T21:01:49;9.68;;;3.17;;
19113;SDS011;9689;51.052;13.772;2023-07-20T21:06:50;4.93;;;2.40;;
19113;SDS011;9689;51.052;13.772;2023-07-20T21:11:51;2.83;;;2.03;;
19113;SDS011;9689;51.052;13.772;2023-07-20T21:16:54;5.25;;;2.25;;
19113;SDS011;9689;51.052;13.772;2023-07-20T21:21:55;4.88;;;2.58;;
19113;SDS011;9689;51.052;13.772;2023-07-20T21:26:56;5.82;;;2.05;;
19113;SDS011;9689;51.052;13.772;2023-07-20T21:31:58;3.55;;;2.15;;
19113;SDS011;9689;51.052;13.772;2023-07-20T21:36:59;2.55;;;2.03;;
19113;SDS011;9689;51.052;13.772;2023-07-20T21:42:00;4.00;;;2.38;;
19113;SDS011;9689;51.052;13.772;2023-07-20T21:47:02;4.13;;;2.40;;
19113;SDS011;9689;51.052;13.772;2023-07-20T21:52:03;3.78;;;2.42;;
19113;SDS011;9689;51.052;13.772;2023-07-20T21:57:05;2.58;;;2.10;;
19113;SDS011;9689;51.052;13.772;2023-07-20T22:02:07;3.85;;;2.83;;
19113;SDS011;9689;51.052;13.772;2023-07-20T22:07:08;5.20;;;2.55;;
19113;SDS011;9689;51.052;13.772;2023-07-20T22:12:13;3.05;;;1.98;;
19113;SDS011;9689;51.052;13.772;2023-07-20T22:17:16;4.45;;;2.42;;
19113;SDS011;9689;51.052;13.772;2023-07-20T22:22:17;5.20;;;2.50;;
19113;SDS011;9689;51.052;13.772;2023-07-20T22:27:17;3.55;;;2.05;;
19113;SDS011;9689;51.052;13.772;2023-07-20T22:32:19;3.75;;;2.47;;
19113;SDS011;9689;51.052;13.772;2023-07-20T22:37:20;5.63;;;2.83;;
19113;SDS011;9689;51.052;13.772;2023-07-20T22:42:21;3.83;;;2.70;;
19113;SDS011;9689;51.052;13.772;2023-07-20T22:47:23;6.25;;;2.35;;
19113;SDS011;9689;51.052;13.772;2023-07-20T22:52:25;4.95;;;2.45;;
19113;SDS011;9689;51.052;13.772;2023-07-20T22:57:26;5.63;;;2.08;;
19113;SDS011;9689;51.052;13.772;2023-07-20T23:02:29;2.55;;;1.85;;
19113;SDS011;9689;51.052;13.772;2023-07-20T23:07:30;3.10;;;2.10;;
19113;SDS011;9689;51.052;13.772;2023-07-20T23:12:31;2.85;;;1.92;;
19113;SDS011;9689;51.052;13.772;2023-07-20T23:17:33;5.43;;;2.22;;
19113;SDS011;9689;51.052;13.772;2023-07-20T23:22:34;5.05;;;2.10;;
19113;SDS011;9689;51.052;13.772;2023-07-20T23:27:35;3.00;;;2.00;;
19113;SDS011;9689;51.052;13.772;2023-07-20T23:32:37;2.83;;;2.10;;
19113;SDS011;9689;51.052;13.772;2023-07-20T23:37:38;4.45;;;2.88;;
19113;SDS011;9689;51.052;13.772;2023-07-20T23:42:39;2.28;;;2.03;;
19113;SDS011;9689;51.052;13.772;2023-07-20T23:47:42;4.60;;;2.33;;
19113;SDS011;9689;51.052;13.772;2023-07-20T23:52:43;2.95;;;2.20;;
19113;SDS011;9689;51.052;13.772;2023-07-20T23:57:44;2.60;;;2.17;;
